CheckWX is a tool to help pilots better visualize weather data.  It is not intended as a substitute for an official pre-flight weather briefing.

02:58:29 UTC

EEPU METAR
Pärnu Airport
Pärnu, Estonia
Current

14 hours ago

EEPU 221250Z 31003KT 8000 -RA BKN/// OVC/// 19/19 Q1014
Observed
Jul-22 @ 12:50 UTC
Wind
  • 310° at 3 KTS
Visibility
8,000 meters
Conditions
Light Rain
Temperature
19°C / 66°F
Dewpoint
19°C / 66°F
Humidity
100%
Altimeter
29.94" Hg
Pressure
1013.92 hPa
Previous

15 hours ago

EEPU 221150Z 30003KT 260V340 8000 -RA BKN/// OVC/// 19/19 Q1014
Observed
Jul-22 @ 11:50 UTC
Wind
  • 300° at 3 KTS
Visibility
8,000 meters
Conditions
Light Rain
Temperature
19°C / 66°F
Dewpoint
19°C / 66°F
Humidity
100%
Altimeter
29.94" Hg
Pressure
1013.92 hPa
Previous

16 hours ago

EEPU 221050Z 28004KT 230V320 9999 -RA BKN/// 19/19 Q1015
Observed
Jul-22 @ 10:50 UTC
Wind
  • 280° at 4 KTS
Visibility
10,000+ meters
Conditions
Light Rain
Temperature
19°C / 66°F
Dewpoint
19°C / 66°F
Humidity
100%
Altimeter
29.97" Hg
Pressure
1014.92 hPa